sensor_id;sensor_type;location;lat;lon;timestamp;P1;durP1;ratioP1;P2;durP2;ratioP2
17173;SDS011;8702;48.130;-1.696;2023-04-25T00:02:09;12.80;;;4.47;;
17173;SDS011;8702;48.130;-1.696;2023-04-25T00:04:37;12.57;;;4.47;;
17173;SDS011;8702;48.130;-1.696;2023-04-25T00:07:04;15.83;;;4.50;;
17173;SDS011;8702;48.130;-1.696;2023-04-25T00:09:32;13.10;;;4.63;;
17173;SDS011;8702;48.130;-1.696;2023-04-25T00:11:59;15.07;;;3.83;;
17173;SDS011;8702;48.130;-1.696;2023-04-25T00:14:27;14.23;;;4.50;;
17173;SDS011;8702;48.130;-1.696;2023-04-25T00:16:58;9.87;;;4.07;;
17173;SDS011;8702;48.130;-1.696;2023-04-25T00:19:26;9.73;;;3.93;;
17173;SDS011;8702;48.130;-1.696;2023-04-25T00:21:53;11.33;;;4.23;;
17173;SDS011;8702;48.130;-1.696;2023-04-25T00:24:20;10.53;;;4.17;;
17173;SDS011;8702;48.130;-1.696;2023-04-25T00:26:48;13.07;;;4.70;;
17173;SDS011;8702;48.130;-1.696;2023-04-25T00:29:15;16.90;;;4.90;;
17173;SDS011;8702;48.130;-1.696;2023-04-25T00:31:42;10.83;;;4.20;;
17173;SDS011;8702;48.130;-1.696;2023-04-25T00:34:09;11.03;;;4.47;;
17173;SDS011;8702;48.130;-1.696;2023-04-25T00:36:36;9.90;;;4.17;;
17173;SDS011;8702;48.130;-1.696;2023-04-25T00:39:04;10.70;;;4.20;;
17173;SDS011;8702;48.130;-1.696;2023-04-25T00:41:31;11.20;;;4.03;;
17173;SDS011;8702;48.130;-1.696;2023-04-25T00:44:00;8.57;;;3.93;;
17173;SDS011;8702;48.130;-1.696;2023-04-25T00:46:28;11.20;;;4.00;;
17173;SDS011;8702;48.130;-1.696;2023-04-25T00:48:56;12.27;;;4.27;;
17173;SDS011;8702;48.130;-1.696;2023-04-25T00:51:22;11.73;;;4.33;;
17173;SDS011;8702;48.130;-1.696;2023-04-25T00:53:51;13.30;;;4.47;;
17173;SDS011;8702;48.130;-1.696;2023-04-25T00:56:19;9.60;;;4.07;;
17173;SDS011;8702;48.130;-1.696;2023-04-25T00:58:47;11.23;;;3.90;;
17173;SDS011;8702;48.130;-1.696;2023-04-25T01:01:16;9.90;;;4.23;;
17173;SDS011;8702;48.130;-1.696;2023-04-25T01:03:43;12.37;;;4.30;;
17173;SDS011;8702;48.130;-1.696;2023-04-25T01:06:16;11.07;;;3.90;;
17173;SDS011;8702;48.130;-1.696;2023-04-25T01:08:44;10.40;;;4.27;;
17173;SDS011;8702;48.130;-1.696;2023-04-25T01:11:11;10.40;;;4.00;;
17173;SDS011;8702;48.130;-1.696;2023-04-25T01:13:38;9.87;;;4.40;;
17173;SDS011;8702;48.130;-1.696;2023-04-25T01:16:05;15.17;;;4.83;;
17173;SDS011;8702;48.130;-1.696;2023-04-25T01:18:33;13.73;;;4.57;;
17173;SDS011;8702;48.130;-1.696;2023-04-25T01:21:08;14.43;;;4.47;;
17173;SDS011;8702;48.130;-1.696;2023-04-25T01:23:35;13.53;;;4.13;;
17173;SDS011;8702;48.130;-1.696;2023-04-25T01:26:03;12.73;;;4.80;;
17173;SDS011;8702;48.130;-1.696;2023-04-25T01:28:32;10.83;;;4.13;;
17173;SDS011;8702;48.130;-1.696;2023-04-25T01:31:00;14.80;;;4.90;;
17173;SDS011;8702;48.130;-1.696;2023-04-25T01:33:27;11.90;;;4.00;;
17173;SDS011;8702;48.130;-1.696;2023-04-25T01:35:55;9.83;;;4.33;;
17173;SDS011;8702;48.130;-1.696;2023-04-25T01:38:23;15.80;;;5.13;;
17173;SDS011;8702;48.130;-1.696;2023-04-25T01:40:51;16.80;;;5.07;;
17173;SDS011;8702;48.130;-1.696;2023-04-25T01:43:19;9.57;;;4.30;;
17173;SDS011;8702;48.130;-1.696;2023-04-25T01:45:47;15.03;;;5.10;;
17173;SDS011;8702;48.130;-1.696;2023-04-25T01:48:16;15.30;;;5.07;;
17173;SDS011;8702;48.130;-1.696;2023-04-25T01:50:43;11.80;;;4.43;;
17173;SDS011;8702;48.130;-1.696;2023-04-25T01:53:11;13.00;;;4.83;;
17173;SDS011;8702;48.130;-1.696;2023-04-25T01:55:41;9.53;;;4.63;;
17173;SDS011;8702;48.130;-1.696;2023-04-25T01:58:08;14.07;;;4.50;;
17173;SDS011;8702;48.130;-1.696;2023-04-25T02:00:37;14.50;;;4.73;;
17173;SDS011;8702;48.130;-1.696;2023-04-25T02:03:05;11.10;;;4.80;;
17173;SDS011;8702;48.130;-1.696;2023-04-25T02:05:36;9.93;;;4.57;;
17173;SDS011;8702;48.130;-1.696;2023-04-25T02:08:04;13.13;;;4.80;;
17173;SDS011;8702;48.130;-1.696;2023-04-25T02:10:32;9.77;;;4.40;;
17173;SDS011;8702;48.130;-1.696;2023-04-25T02:13:01;14.47;;;4.67;;
17173;SDS011;8702;48.130;-1.696;2023-04-25T02:15:29;15.20;;;4.50;;
17173;SDS011;8702;48.130;-1.696;2023-04-25T02:17:56;15.47;;;4.87;;
17173;SDS011;8702;48.130;-1.696;2023-04-25T02:20:25;13.00;;;4.87;;
17173;SDS011;8702;48.130;-1.696;2023-04-25T02:22:53;12.60;;;4.50;;
17173;SDS011;8702;48.130;-1.696;2023-04-25T02:25:20;11.83;;;4.37;;
17173;SDS011;8702;48.130;-1.696;2023-04-25T02:27:47;13.67;;;4.70;;
17173;SDS011;8702;48.130;-1.696;2023-04-25T02:30:16;13.97;;;5.13;;
17173;SDS011;8702;48.130;-1.696;2023-04-25T02:32:44;11.90;;;4.60;;
17173;SDS011;8702;48.130;-1.696;2023-04-25T02:35:11;13.93;;;4.77;;
17173;SDS011;8702;48.130;-1.696;2023-04-25T02:37:38;9.80;;;4.47;;
17173;SDS011;8702;48.130;-1.696;2023-04-25T02:40:06;13.10;;;4.77;;
17173;SDS011;8702;48.130;-1.696;2023-04-25T02:42:34;12.33;;;5.03;;
17173;SDS011;8702;48.130;-1.696;2023-04-25T02:45:01;11.37;;;4.80;;
17173;SDS011;8702;48.130;-1.696;2023-04-25T02:47:30;10.27;;;4.63;;
17173;SDS011;8702;48.130;-1.696;2023-04-25T02:49:57;14.63;;;5.23;;
17173;SDS011;8702;48.130;-1.696;2023-04-25T02:52:24;11.63;;;4.87;;
17173;SDS011;8702;48.130;-1.696;2023-04-25T02:54:51;11.73;;;4.80;;
17173;SDS011;8702;48.130;-1.696;2023-04-25T02:57:18;13.00;;;4.67;;
17173;SDS011;8702;48.130;-1.696;2023-04-25T02:59:45;11.47;;;5.00;;
17173;SDS011;8702;48.130;-1.696;2023-04-25T03:02:11;10.13;;;4.67;;
17173;SDS011;8702;48.130;-1.696;2023-04-25T03:04:40;13.93;;;4.67;;
17173;SDS011;8702;48.130;-1.696;2023-04-25T03:07:07;13.77;;;5.17;;
17173;SDS011;8702;48.130;-1.696;2023-04-25T03:09:34;11.37;;;4.17;;
17173;SDS011;8702;48.130;-1.696;2023-04-25T03:12:01;12.57;;;5.10;;
17173;SDS011;8702;48.130;-1.696;2023-04-25T03:14:28;14.40;;;4.80;;
17173;SDS011;8702;48.130;-1.696;2023-04-25T03:16:55;15.63;;;5.07;;
17173;SDS011;8702;48.130;-1.696;2023-04-25T03:19:22;9.03;;;4.47;;
17173;SDS011;8702;48.130;-1.696;2023-04-25T03:21:50;14.27;;;5.10;;
17173;SDS011;8702;48.130;-1.696;2023-04-25T03:24:18;11.57;;;4.57;;
17173;SDS011;8702;48.130;-1.696;2023-04-25T03:26:45;10.43;;;5.00;;
17173;SDS011;8702;48.130;-1.696;2023-04-25T03:29:12;16.40;;;4.67;;
17173;SDS011;8702;48.130;-1.696;2023-04-25T03:31:39;10.80;;;5.10;;
17173;SDS011;8702;48.130;-1.696;2023-04-25T03:34:06;12.00;;;4.63;;
17173;SDS011;8702;48.130;-1.696;2023-04-25T03:36:33;10.63;;;4.47;;
17173;SDS011;8702;48.130;-1.696;2023-04-25T03:39:01;10.73;;;4.70;;
17173;SDS011;8702;48.130;-1.696;2023-04-25T03:41:28;12.37;;;5.03;;
17173;SDS011;8702;48.130;-1.696;2023-04-25T03:43:55;12.13;;;4.83;;
17173;SDS011;8702;48.130;-1.696;2023-04-25T03:46:22;11.53;;;4.70;;
17173;SDS011;8702;48.130;-1.696;2023-04-25T03:48:49;13.00;;;5.20;;
17173;SDS011;8702;48.130;-1.696;2023-04-25T03:51:16;14.83;;;4.97;;
17173;SDS011;8702;48.130;-1.696;2023-04-25T03:53:45;11.63;;;4.50;;
17173;SDS011;8702;48.130;-1.696;2023-04-25T03:56:15;11.50;;;4.90;;
17173;SDS011;8702;48.130;-1.696;2023-04-25T03:58:42;8.40;;;4.90;;
17173;SDS011;8702;48.130;-1.696;2023-04-25T04:01:09;18.17;;;5.10;;
17173;SDS011;8702;48.130;-1.696;2023-04-25T04:03:36;11.13;;;5.20;;
17173;SDS011;8702;48.130;-1.696;2023-04-25T04:06:06;11.33;;;4.57;;
17173;SDS011;8702;48.130;-1.696;2023-04-25T04:08:36;9.83;;;4.80;;
17173;SDS011;8702;48.130;-1.696;2023-04-25T04:11:03;11.40;;;4.87;;
17173;SDS011;8702;48.130;-1.696;2023-04-25T04:13:32;12.63;;;5.27;;
17173;SDS011;8702;48.130;-1.696;2023-04-25T04:15:59;11.63;;;5.00;;
17173;SDS011;8702;48.130;-1.696;2023-04-25T04:18:26;18.73;;;5.23;;
17173;SDS011;8702;48.130;-1.696;2023-04-25T04:20:53;10.50;;;4.57;;
17173;SDS011;8702;48.130;-1.696;2023-04-25T04:23:20;14.33;;;5.30;;
17173;SDS011;8702;48.130;-1.696;2023-04-25T04:25:48;11.40;;;4.87;;
17173;SDS011;8702;48.130;-1.696;2023-04-25T04:28:15;11.67;;;4.93;;
17173;SDS011;8702;48.130;-1.696;2023-04-25T04:30:44;9.27;;;4.63;;
17173;SDS011;8702;48.130;-1.696;2023-04-25T04:33:12;14.27;;;4.63;;
17173;SDS011;8702;48.130;-1.696;2023-04-25T04:35:40;9.50;;;4.63;;
17173;SDS011;8702;48.130;-1.696;2023-04-25T04:38:09;10.73;;;4.40;;
17173;SDS011;8702;48.130;-1.696;2023-04-25T04:40:37;12.37;;;4.80;;
17173;SDS011;8702;48.130;-1.696;2023-04-25T04:43:04;8.43;;;4.20;;
17173;SDS011;8702;48.130;-1.696;2023-04-25T04:45:31;10.70;;;5.23;;
17173;SDS011;8702;48.130;-1.696;2023-04-25T04:48:03;13.03;;;5.23;;
17173;SDS011;8702;48.130;-1.696;2023-04-25T04:50:30;11.67;;;4.60;;
17173;SDS011;8702;48.130;-1.696;2023-04-25T04:52:58;12.13;;;4.80;;
17173;SDS011;8702;48.130;-1.696;2023-04-25T04:55:25;13.33;;;5.00;;
17173;SDS011;8702;48.130;-1.696;2023-04-25T04:57:56;13.30;;;5.47;;
17173;SDS011;8702;48.130;-1.696;2023-04-25T05:00:24;9.40;;;4.60;;
17173;SDS011;8702;48.130;-1.696;2023-04-25T05:02:54;13.50;;;5.30;;
17173;SDS011;8702;48.130;-1.696;2023-04-25T05:05:23;12.43;;;5.33;;
17173;SDS011;8702;48.130;-1.696;2023-04-25T05:07:51;12.53;;;4.67;;
17173;SDS011;8702;48.130;-1.696;2023-04-25T05:10:18;12.47;;;4.80;;
17173;SDS011;8702;48.130;-1.696;2023-04-25T05:12:46;14.33;;;4.83;;
17173;SDS011;8702;48.130;-1.696;2023-04-25T05:15:13;11.73;;;4.87;;
17173;SDS011;8702;48.130;-1.696;2023-04-25T05:17:40;12.43;;;5.57;;
17173;SDS011;8702;48.130;-1.696;2023-04-25T05:20:07;11.57;;;4.80;;
17173;SDS011;8702;48.130;-1.696;2023-04-25T05:22:36;13.30;;;5.07;;
17173;SDS011;8702;48.130;-1.696;2023-04-25T05:25:03;10.63;;;4.90;;
17173;SDS011;8702;48.130;-1.696;2023-04-25T05:27:32;12.93;;;5.67;;
17173;SDS011;8702;48.130;-1.696;2023-04-25T05:29:58;12.27;;;5.47;;
17173;SDS011;8702;48.130;-1.696;2023-04-25T05:32:25;10.97;;;5.13;;
17173;SDS011;8702;48.130;-1.696;2023-04-25T05:34:52;9.13;;;4.87;;
17173;SDS011;8702;48.130;-1.696;2023-04-25T05:37:19;12.20;;;5.27;;
17173;SDS011;8702;48.130;-1.696;2023-04-25T05:39:48;11.27;;;4.93;;
17173;SDS011;8702;48.130;-1.696;2023-04-25T05:42:15;12.43;;;5.30;;
17173;SDS011;8702;48.130;-1.696;2023-04-25T05:44:45;9.63;;;5.23;;
17173;SDS011;8702;48.130;-1.696;2023-04-25T05:47:14;12.93;;;5.20;;
17173;SDS011;8702;48.130;-1.696;2023-04-25T05:49:43;13.73;;;5.10;;
17173;SDS011;8702;48.130;-1.696;2023-04-25T05:52:13;8.00;;;4.80;;
17173;SDS011;8702;48.130;-1.696;2023-04-25T05:54:41;12.40;;;4.70;;
17173;SDS011;8702;48.130;-1.696;2023-04-25T05:57:19;9.57;;;5.00;;
17173;SDS011;8702;48.130;-1.696;2023-04-25T05:59:47;12.43;;;5.57;;
17173;SDS011;8702;48.130;-1.696;2023-04-25T06:02:15;10.57;;;5.03;;
17173;SDS011;8702;48.130;-1.696;2023-04-25T06:04:42;7.90;;;4.50;;
17173;SDS011;8702;48.130;-1.696;2023-04-25T06:07:12;10.13;;;5.47;;
17173;SDS011;8702;48.130;-1.696;2023-04-25T06:09:42;10.73;;;5.00;;
17173;SDS011;8702;48.130;-1.696;2023-04-25T06:12:11;7.27;;;4.50;;
17173;SDS011;8702;48.130;-1.696;2023-04-25T06:14:40;10.57;;;4.93;;
17173;SDS011;8702;48.130;-1.696;2023-04-25T06:17:09;9.97;;;5.50;;
17173;SDS011;8702;48.130;-1.696;2023-04-25T06:19:36;11.37;;;5.13;;
17173;SDS011;8702;48.130;-1.696;2023-04-25T06:22:03;10.30;;;4.90;;
17173;SDS011;8702;48.130;-1.696;2023-04-25T06:24:32;9.90;;;4.70;;
17173;SDS011;8702;48.130;-1.696;2023-04-25T06:26:59;10.17;;;4.30;;
17173;SDS011;8702;48.130;-1.696;2023-04-25T06:29:27;10.57;;;5.00;;
17173;SDS011;8702;48.130;-1.696;2023-04-25T06:31:55;9.50;;;4.80;;
17173;SDS011;8702;48.130;-1.696;2023-04-25T06:34:22;11.27;;;5.13;;
17173;SDS011;8702;48.130;-1.696;2023-04-25T06:36:49;13.17;;;5.30;;
17173;SDS011;8702;48.130;-1.696;2023-04-25T06:39:16;13.13;;;5.00;;
17173;SDS011;8702;48.130;-1.696;2023-04-25T06:41:45;12.27;;;5.10;;
17173;SDS011;8702;48.130;-1.696;2023-04-25T06:44:12;11.07;;;4.83;;
17173;SDS011;8702;48.130;-1.696;2023-04-25T06:46:39;15.10;;;5.27;;
17173;SDS011;8702;48.130;-1.696;2023-04-25T06:49:07;12.43;;;5.13;;
17173;SDS011;8702;48.130;-1.696;2023-04-25T06:51:34;8.37;;;5.57;;
17173;SDS011;8702;48.130;-1.696;2023-04-25T06:54:01;10.87;;;5.90;;
17173;SDS011;8702;48.130;-1.696;2023-04-25T06:56:29;11.63;;;6.07;;
17173;SDS011;8702;48.130;-1.696;2023-04-25T06:58:56;11.83;;;5.87;;
17173;SDS011;8702;48.130;-1.696;2023-04-25T07:01:23;13.23;;;6.10;;
17173;SDS011;8702;48.130;-1.696;2023-04-25T07:03:50;12.50;;;5.93;;
17173;SDS011;8702;48.130;-1.696;2023-04-25T07:06:19;14.70;;;6.77;;
17173;SDS011;8702;48.130;-1.696;2023-04-25T07:08:45;10.07;;;5.77;;
17173;SDS011;8702;48.130;-1.696;2023-04-25T07:11:12;11.33;;;6.20;;
17173;SDS011;8702;48.130;-1.696;2023-04-25T07:13:39;8.93;;;5.40;;
17173;SDS011;8702;48.130;-1.696;2023-04-25T07:16:06;10.77;;;6.30;;
17173;SDS011;8702;48.130;-1.696;2023-04-25T07:18:33;10.63;;;5.60;;
17173;SDS011;8702;48.130;-1.696;2023-04-25T07:21:00;14.70;;;6.53;;
17173;SDS011;8702;48.130;-1.696;2023-04-25T07:23:29;13.97;;;6.37;;
17173;SDS011;8702;48.130;-1.696;2023-04-25T07:25:56;11.23;;;6.27;;
17173;SDS011;8702;48.130;-1.696;2023-04-25T07:28:23;10.00;;;6.00;;
17173;SDS011;8702;48.130;-1.696;2023-04-25T07:30:50;10.90;;;6.10;;
17173;SDS011;8702;48.130;-1.696;2023-04-25T07:33:20;9.50;;;6.13;;
17173;SDS011;8702;48.130;-1.696;2023-04-25T07:35:48;9.63;;;6.60;;
17173;SDS011;8702;48.130;-1.696;2023-04-25T07:38:15;7.50;;;5.73;;
17173;SDS011;8702;48.130;-1.696;2023-04-25T07:40:43;12.10;;;6.37;;
17173;SDS011;8702;48.130;-1.696;2023-04-25T07:43:10;9.00;;;6.20;;
17173;SDS011;8702;48.130;-1.696;2023-04-25T07:45:39;13.67;;;6.40;;
17173;SDS011;8702;48.130;-1.696;2023-04-25T07:48:07;9.90;;;6.33;;
17173;SDS011;8702;48.130;-1.696;2023-04-25T07:50:34;13.83;;;6.10;;
17173;SDS011;8702;48.130;-1.696;2023-04-25T07:53:01;9.40;;;6.03;;
17173;SDS011;8702;48.130;-1.696;2023-04-25T07:55:28;12.00;;;5.73;;
17173;SDS011;8702;48.130;-1.696;2023-04-25T07:57:56;14.00;;;7.20;;
17173;SDS011;8702;48.130;-1.696;2023-04-25T08:00:23;10.23;;;5.80;;
17173;SDS011;8702;48.130;-1.696;2023-04-25T08:02:50;10.50;;;6.97;;
17173;SDS011;8702;48.130;-1.696;2023-04-25T08:05:17;9.47;;;6.43;;
17173;SDS011;8702;48.130;-1.696;2023-04-25T08:07:44;8.57;;;6.73;;
17173;SDS011;8702;48.130;-1.696;2023-04-25T08:10:11;9.40;;;6.33;;
17173;SDS011;8702;48.130;-1.696;2023-04-25T08:12:38;6.93;;;5.93;;
17173;SDS011;8702;48.130;-1.696;2023-04-25T08:15:07;9.40;;;6.40;;
17173;SDS011;8702;48.130;-1.696;2023-04-25T08:17:35;9.77;;;6.50;;
17173;SDS011;8702;48.130;-1.696;2023-04-25T08:20:03;9.63;;;5.63;;
17173;SDS011;8702;48.130;-1.696;2023-04-25T08:22:31;6.40;;;5.30;;
17173;SDS011;8702;48.130;-1.696;2023-04-25T08:24:59;7.87;;;6.10;;
17173;SDS011;8702;48.130;-1.696;2023-04-25T08:27:25;9.40;;;6.23;;
17173;SDS011;8702;48.130;-1.696;2023-04-25T08:29:52;9.93;;;5.93;;
17173;SDS011;8702;48.130;-1.696;2023-04-25T08:32:21;8.40;;;6.40;;
17173;SDS011;8702;48.130;-1.696;2023-04-25T08:34:48;8.70;;;5.97;;
17173;SDS011;8702;48.130;-1.696;2023-04-25T08:37:16;9.03;;;6.20;;
17173;SDS011;8702;48.130;-1.696;2023-04-25T08:39:45;8.90;;;6.07;;
17173;SDS011;8702;48.130;-1.696;2023-04-25T08:42:15;11.60;;;5.97;;
17173;SDS011;8702;48.130;-1.696;2023-04-25T08:44:43;9.67;;;5.50;;
17173;SDS011;8702;48.130;-1.696;2023-04-25T08:47:13;6.97;;;5.50;;
17173;SDS011;8702;48.130;-1.696;2023-04-25T08:49:41;8.67;;;4.93;;
17173;SDS011;8702;48.130;-1.696;2023-04-25T08:52:11;8.83;;;5.30;;
17173;SDS011;8702;48.130;-1.696;2023-04-25T08:54:41;7.37;;;5.27;;
17173;SDS011;8702;48.130;-1.696;2023-04-25T08:57:11;9.50;;;5.10;;
17173;SDS011;8702;48.130;-1.696;2023-04-25T08:59:40;9.70;;;5.17;;
17173;SDS011;8702;48.130;-1.696;2023-04-25T09:02:10;5.87;;;4.30;;
17173;SDS011;8702;48.130;-1.696;2023-04-25T09:04:40;7.67;;;4.53;;
17173;SDS011;8702;48.130;-1.696;2023-04-25T09:07:10;8.13;;;4.70;;
17173;SDS011;8702;48.130;-1.696;2023-04-25T09:09:40;8.57;;;4.43;;
17173;SDS011;8702;48.130;-1.696;2023-04-25T09:12:08;9.43;;;4.30;;
17173;SDS011;8702;48.130;-1.696;2023-04-25T09:14:35;8.63;;;4.13;;
17173;SDS011;8702;48.130;-1.696;2023-04-25T09:17:03;11.13;;;4.33;;
17173;SDS011;8702;48.130;-1.696;2023-04-25T09:19:33;7.03;;;4.50;;
17173;SDS011;8702;48.130;-1.696;2023-04-25T09:22:03;11.10;;;4.17;;
17173;SDS011;8702;48.130;-1.696;2023-04-25T09:24:31;6.07;;;4.50;;
17173;SDS011;8702;48.130;-1.696;2023-04-25T09:27:04;7.10;;;3.87;;
17173;SDS011;8702;48.130;-1.696;2023-04-25T09:29:36;5.43;;;3.50;;
17173;SDS011;8702;48.130;-1.696;2023-04-25T09:32:10;6.73;;;4.27;;
17173;SDS011;8702;48.130;-1.696;2023-04-25T09:34:42;5.67;;;3.77;;
17173;SDS011;8702;48.130;-1.696;2023-04-25T09:37:16;7.40;;;3.70;;
17173;SDS011;8702;48.130;-1.696;2023-04-25T09:39:46;5.97;;;3.10;;
17173;SDS011;8702;48.130;-1.696;2023-04-25T09:42:14;5.23;;;3.50;;
17173;SDS011;8702;48.130;-1.696;2023-04-25T09:44:42;6.60;;;3.33;;
17173;SDS011;8702;48.130;-1.696;2023-04-25T09:47:11;6.23;;;2.90;;
17173;SDS011;8702;48.130;-1.696;2023-04-25T09:49:40;6.80;;;3.03;;
17173;SDS011;8702;48.130;-1.696;2023-04-25T09:52:09;5.83;;;2.97;;
17173;SDS011;8702;48.130;-1.696;2023-04-25T09:54:40;4.73;;;3.13;;
17173;SDS011;8702;48.130;-1.696;2023-04-25T09:57:09;7.07;;;4.00;;
17173;SDS011;8702;48.130;-1.696;2023-04-25T09:59:38;5.10;;;3.10;;
17173;SDS011;8702;48.130;-1.696;2023-04-25T10:02:08;5.27;;;3.43;;
17173;SDS011;8702;48.130;-1.696;2023-04-25T10:04:36;7.30;;;3.83;;
17173;SDS011;8702;48.130;-1.696;2023-04-25T10:07:05;5.37;;;3.10;;
17173;SDS011;8702;48.130;-1.696;2023-04-25T10:09:33;5.60;;;3.00;;
17173;SDS011;8702;48.130;-1.696;2023-04-25T10:12:04;5.13;;;3.20;;
17173;SDS011;8702;48.130;-1.696;2023-04-25T10:14:31;5.40;;;3.30;;
17173;SDS011;8702;48.130;-1.696;2023-04-25T10:16:59;4.57;;;3.23;;
17173;SDS011;8702;48.130;-1.696;2023-04-25T10:19:26;6.27;;;3.10;;
17173;SDS011;8702;48.130;-1.696;2023-04-25T10:21:57;6.87;;;3.50;;
17173;SDS011;8702;48.130;-1.696;2023-04-25T10:24:29;4.13;;;3.27;;
17173;SDS011;8702;48.130;-1.696;2023-04-25T10:26:57;7.63;;;3.17;;
17173;SDS011;8702;48.130;-1.696;2023-04-25T10:29:26;5.30;;;2.60;;
17173;SDS011;8702;48.130;-1.696;2023-04-25T10:31:53;3.87;;;2.70;;
17173;SDS011;8702;48.130;-1.696;2023-04-25T10:34:23;4.40;;;3.03;;
17173;SDS011;8702;48.130;-1.696;2023-04-25T10:36:52;4.73;;;3.10;;
17173;SDS011;8702;48.130;-1.696;2023-04-25T10:39:23;5.77;;;3.07;;
17173;SDS011;8702;48.130;-1.696;2023-04-25T10:41:55;2.90;;;2.47;;
17173;SDS011;8702;48.130;-1.696;2023-04-25T10:44:23;4.37;;;2.40;;
17173;SDS011;8702;48.130;-1.696;2023-04-25T10:46:54;5.90;;;2.23;;
17173;SDS011;8702;48.130;-1.696;2023-04-25T10:49:30;5.10;;;2.30;;
17173;SDS011;8702;48.130;-1.696;2023-04-25T10:54:40;3.17;;;2.10;;
17173;SDS011;8702;48.130;-1.696;2023-04-25T10:59:55;3.03;;;2.27;;
17173;SDS011;8702;48.130;-1.696;2023-04-25T11:02:26;5.23;;;2.50;;
17173;SDS011;8702;48.130;-1.696;2023-04-25T11:04:54;3.90;;;2.53;;
17173;SDS011;8702;48.130;-1.696;2023-04-25T11:07:23;4.60;;;2.73;;
17173;SDS011;8702;48.130;-1.696;2023-04-25T11:10:00;4.00;;;2.60;;
17173;SDS011;8702;48.130;-1.696;2023-04-25T11:12:29;5.80;;;2.23;;
17173;SDS011;8702;48.130;-1.696;2023-04-25T11:14:59;4.43;;;2.50;;
17173;SDS011;8702;48.130;-1.696;2023-04-25T11:17:27;3.90;;;2.80;;
17173;SDS011;8702;48.130;-1.696;2023-04-25T11:19:55;3.07;;;2.13;;
17173;SDS011;8702;48.130;-1.696;2023-04-25T11:22:23;4.00;;;2.40;;
17173;SDS011;8702;48.130;-1.696;2023-04-25T11:24:50;4.07;;;2.73;;
17173;SDS011;8702;48.130;-1.696;2023-04-25T11:27:17;3.50;;;2.40;;
17173;SDS011;8702;48.130;-1.696;2023-04-25T11:29:44;4.53;;;2.43;;
17173;SDS011;8702;48.130;-1.696;2023-04-25T11:32:14;4.23;;;2.47;;
17173;SDS011;8702;48.130;-1.696;2023-04-25T11:34:42;4.27;;;3.20;;
17173;SDS011;8702;48.130;-1.696;2023-04-25T11:37:11;6.03;;;2.77;;
17173;SDS011;8702;48.130;-1.696;2023-04-25T11:39:42;4.60;;;2.87;;
17173;SDS011;8702;48.130;-1.696;2023-04-25T11:42:11;6.10;;;2.97;;
17173;SDS011;8702;48.130;-1.696;2023-04-25T11:44:40;3.33;;;2.07;;
17173;SDS011;8702;48.130;-1.696;2023-04-25T11:47:09;3.60;;;2.57;;
17173;SDS011;8702;48.130;-1.696;2023-04-25T11:49:40;2.90;;;2.10;;
17173;SDS011;8702;48.130;-1.696;2023-04-25T11:52:09;5.87;;;3.10;;
17173;SDS011;8702;48.130;-1.696;2023-04-25T11:54:37;5.77;;;2.67;;
17173;SDS011;8702;48.130;-1.696;2023-04-25T11:57:06;5.00;;;3.20;;
17173;SDS011;8702;48.130;-1.696;2023-04-25T11:59:33;4.50;;;2.90;;
17173;SDS011;8702;48.130;-1.696;2023-04-25T12:02:00;6.70;;;3.27;;
17173;SDS011;8702;48.130;-1.696;2023-04-25T12:04:29;4.63;;;3.00;;
17173;SDS011;8702;48.130;-1.696;2023-04-25T12:06:59;4.70;;;2.90;;
17173;SDS011;8702;48.130;-1.696;2023-04-25T12:09:29;5.27;;;3.03;;
17173;SDS011;8702;48.130;-1.696;2023-04-25T12:11:59;3.70;;;2.97;;
17173;SDS011;8702;48.130;-1.696;2023-04-25T12:14:29;4.13;;;2.90;;
17173;SDS011;8702;48.130;-1.696;2023-04-25T12:16:59;5.00;;;3.40;;
17173;SDS011;8702;48.130;-1.696;2023-04-25T12:19:31;4.50;;;2.90;;
17173;SDS011;8702;48.130;-1.696;2023-04-25T12:22:03;3.00;;;2.70;;
17173;SDS011;8702;48.130;-1.696;2023-04-25T12:24:44;5.37;;;2.87;;
17173;SDS011;8702;48.130;-1.696;2023-04-25T12:27:13;6.23;;;2.40;;
17173;SDS011;8702;48.130;-1.696;2023-04-25T12:29:49;5.27;;;2.50;;
17173;SDS011;8702;48.130;-1.696;2023-04-25T12:32:19;3.57;;;2.53;;
17173;SDS011;8702;48.130;-1.696;2023-04-25T12:34:46;5.23;;;2.63;;
17173;SDS011;8702;48.130;-1.696;2023-04-25T12:37:14;3.30;;;2.20;;
17173;SDS011;8702;48.130;-1.696;2023-04-25T12:39:41;4.33;;;2.90;;
17173;SDS011;8702;48.130;-1.696;2023-04-25T12:42:08;3.20;;;2.63;;
17173;SDS011;8702;48.130;-1.696;2023-04-25T12:44:36;3.77;;;2.80;;
17173;SDS011;8702;48.130;-1.696;2023-04-25T12:47:04;5.60;;;2.77;;
17173;SDS011;8702;48.130;-1.696;2023-04-25T12:49:32;4.90;;;2.60;;
17173;SDS011;8702;48.130;-1.696;2023-04-25T12:51:59;3.87;;;2.80;;
17173;SDS011;8702;48.130;-1.696;2023-04-25T12:54:28;6.37;;;3.00;;
17173;SDS011;8702;48.130;-1.696;2023-04-25T12:56:55;4.10;;;2.70;;
17173;SDS011;8702;48.130;-1.696;2023-04-25T12:59:22;4.07;;;2.57;;
17173;SDS011;8702;48.130;-1.696;2023-04-25T13:01:51;5.77;;;3.00;;
17173;SDS011;8702;48.130;-1.696;2023-04-25T13:04:21;4.80;;;2.90;;
17173;SDS011;8702;48.130;-1.696;2023-04-25T13:06:48;4.53;;;2.40;;
17173;SDS011;8702;48.130;-1.696;2023-04-25T13:09:15;4.60;;;2.50;;
17173;SDS011;8702;48.130;-1.696;2023-04-25T13:11:44;4.83;;;2.63;;
17173;SDS011;8702;48.130;-1.696;2023-04-25T13:14:11;3.43;;;2.50;;
17173;SDS011;8702;48.130;-1.696;2023-04-25T13:16:38;3.13;;;2.80;;
17173;SDS011;8702;48.130;-1.696;2023-04-25T13:19:06;4.73;;;3.00;;
17173;SDS011;8702;48.130;-1.696;2023-04-25T13:21:36;4.37;;;3.13;;
17173;SDS011;8702;48.130;-1.696;2023-04-25T13:24:03;3.77;;;3.07;;
17173;SDS011;8702;48.130;-1.696;2023-04-25T13:26:30;5.07;;;2.80;;
17173;SDS011;8702;48.130;-1.696;2023-04-25T13:29:01;4.80;;;2.57;;
17173;SDS011;8702;48.130;-1.696;2023-04-25T13:31:31;5.13;;;3.30;;
17173;SDS011;8702;48.130;-1.696;2023-04-25T13:33:59;6.00;;;3.33;;
17173;SDS011;8702;48.130;-1.696;2023-04-25T13:36:28;6.07;;;3.60;;
17173;SDS011;8702;48.130;-1.696;2023-04-25T13:38:56;6.87;;;3.00;;
17173;SDS011;8702;48.130;-1.696;2023-04-25T13:41:25;4.33;;;3.10;;
17173;SDS011;8702;48.130;-1.696;2023-04-25T13:43:53;6.90;;;3.40;;
17173;SDS011;8702;48.130;-1.696;2023-04-25T13:46:22;4.90;;;2.90;;
17173;SDS011;8702;48.130;-1.696;2023-04-25T13:48:50;5.33;;;3.27;;
17173;SDS011;8702;48.130;-1.696;2023-04-25T13:51:18;4.30;;;2.87;;
17173;SDS011;8702;48.130;-1.696;2023-04-25T13:53:46;4.40;;;3.17;;
17173;SDS011;8702;48.130;-1.696;2023-04-25T13:56:13;4.07;;;3.03;;
17173;SDS011;8702;48.130;-1.696;2023-04-25T13:58:40;4.77;;;3.47;;
17173;SDS011;8702;48.130;-1.696;2023-04-25T14:01:07;5.40;;;3.50;;
17173;SDS011;8702;48.130;-1.696;2023-04-25T14:03:36;5.50;;;2.97;;
17173;SDS011;8702;48.130;-1.696;2023-04-25T14:06:03;4.47;;;3.53;;
17173;SDS011;8702;48.130;-1.696;2023-04-25T14:08:30;4.03;;;3.07;;
17173;SDS011;8702;48.130;-1.696;2023-04-25T14:10:57;4.43;;;2.97;;
17173;SDS011;8702;48.130;-1.696;2023-04-25T14:13:24;7.57;;;3.53;;
17173;SDS011;8702;48.130;-1.696;2023-04-25T14:15:51;3.90;;;3.20;;
17173;SDS011;8702;48.130;-1.696;2023-04-25T14:18:18;5.10;;;3.50;;
17173;SDS011;8702;48.130;-1.696;2023-04-25T14:20:46;5.87;;;3.30;;
17173;SDS011;8702;48.130;-1.696;2023-04-25T14:23:14;5.73;;;3.30;;
17173;SDS011;8702;48.130;-1.696;2023-04-25T14:25:42;4.00;;;2.97;;
17173;SDS011;8702;48.130;-1.696;2023-04-25T14:28:09;4.97;;;3.47;;
17173;SDS011;8702;48.130;-1.696;2023-04-25T14:30:36;5.90;;;3.33;;
17173;SDS011;8702;48.130;-1.696;2023-04-25T14:33:03;3.87;;;2.83;;
17173;SDS011;8702;48.130;-1.696;2023-04-25T14:35:30;4.17;;;3.07;;
17173;SDS011;8702;48.130;-1.696;2023-04-25T14:37:58;4.37;;;2.67;;
17173;SDS011;8702;48.130;-1.696;2023-04-25T14:40:25;4.37;;;2.70;;
17173;SDS011;8702;48.130;-1.696;2023-04-25T14:42:52;4.70;;;3.30;;
17173;SDS011;8702;48.130;-1.696;2023-04-25T14:45:20;5.67;;;3.20;;
17173;SDS011;8702;48.130;-1.696;2023-04-25T14:47:47;4.67;;;3.30;;
17173;SDS011;8702;48.130;-1.696;2023-04-25T14:50:14;5.73;;;3.03;;
17173;SDS011;8702;48.130;-1.696;2023-04-25T14:52:40;5.07;;;2.60;;